Home > Products > Valid Products > MTR

000
SAUS41 KPHI 250155
MTR12N
METAR K12N 250154Z AUTO 00000KT 14/12 A3000 RMK AO1 SLP155 T01440117





000
SAUS41 KPHI 250055
MTR12N
METAR K12N 250054Z AUTO 00000KT 16/12 A2998 RMK AO1 SLP150 T01610117





000
SAUS41 KPHI 242355
MTR12N
METAR K12N 242354Z AUTO 00000KT 20/12 A2996 RMK AO1 SLP142 T02000117
10272 20200 53014





000
SAUS41 KPHI 242155
MTR12N
METAR K12N 242154Z AUTO 05005KT 21/11 A2993 RMK AO1 SLP132 T02110106





000
SAUS41 KPHI 241455
MTR12N
METAR K12N 241454Z AUTO VRB04KT 19/14 A2993 RMK AO1 SLP131 T01890139
58002





000
SAUS41 KPHI 241255
MTR12N
METAR K12N 241254Z AUTO 00000KT 15/14 A2995 RMK AO1 SLP139 T01500139





000
SAUS41 KPHI 241155
MTR12N
METAR K12N 241154Z AUTO 00000KT 14/13 A2994 RMK AO1 SLP133 T01440133
10156 20139 53012





000
SAUS41 KPHI 241055
MTR12N
METAR K12N 241054Z AUTO 00000KT 14/13 A2992 RMK AO1 SLP126 T01440133





000
SAUS41 KPHI 240755
MTR12N
METAR K12N 240754Z AUTO 00000KT 14/13 A2989 RMK AO1 SLP117 T01440128





000
SAUS41 KPHI 240555
MTR12N
METAR K12N 240554Z AUTO 22004KT 16/12 A2989 RMK AO1 SLP115 T01560122
10200 20156 56010





000
SAUS41 KPHI 240055
MTR12N
METAR K12N 240054Z AUTO 16003KT 18/12 A2989 RMK AO1 SLP116 T01780122





000
SAUS41 KPHI 232355
MTR12N
METAR K12N 232354Z AUTO 00000KT 20/11 A2987 RMK AO1 SLP112 T02000106
10261 20200 53007





000
SAUS41 KPHI 232155
MTR12N
METAR K12N 232154Z AUTO VRB03KT 23/09 A2985 RMK AO1 SLP104 T02280089





000
SAUS41 KPHI 232055
MTR12N
METAR K12N 232054Z AUTO 00000KT 24/08 A2985 RMK AO1 SLP105 T02440078
58015





000
SAUS41 KPHI 231955
MTR12N
METAR K12N 231954Z AUTO VRB03KT 23/10 A2987 RMK AO1 SLP113 T02330100





000
SAUS41 KPHI 231855
MTR12N
METAR K12N 231854Z AUTO VRB05KT 25/08 A2988 RMK AO1 SLP115 T02500078





000
SAUS41 KPHI 231755
MTR12N
METAR K12N 231754Z AUTO VRB06KT 25/09 A2990 RMK AO1 SLP121 T02500094
10250 20144 58011





000
SAUS41 KPHI 231455
MTR12N
METAR K12N 231454Z AUTO VRB04KT 21/11 A2993 RMK AO1 SLP133 T02110111
58006





000
SAUS41 KPHI 231355
MTR12N
METAR K12N 231354Z AUTO VRB04KT 19/11 A2995 RMK AO1 SLP140 T01940111





000
SAUS41 KPHI 231255
MTR12N
METAR K12N 231254Z AUTO VRB03KT 16/11 A2996 RMK AO1 SLP142 T01610111





000
SAUS41 KPHI 231155
MTR12N
METAR K12N 231154Z AUTO 00000KT 15/12 A2995 RMK AO1 SLP140 T01500117
10150 20089 53013





000
SAUS41 KPHI 231055
MTR12N
METAR K12N 231054Z AUTO 00000KT 12/11 A2994 RMK AO1 SLP137 T01170111





000
SAUS41 KPHI 230955
MTR12N
METAR K12N 230954Z AUTO 00000KT 11/09 A2992 RMK AO1 SLP132 T01060094





000
SAUS41 KPHI 230655
MTR12N
METAR K12N 230654Z AUTO 00000KT 09/08 A2990 RMK AO1 SLP123 T00940083





000
SAUS41 KPHI 230555
MTR12N
METAR K12N 230554Z AUTO 00000KT 10/09 A2990 RMK AO1 SLP125 T01000089
10156 20100 50002





000
SAUS41 KPHI 230355
MTR12N
METAR K12N 230354Z AUTO 00000KT 11/10 A2990 RMK AO1 SLP124 T01110100





000
SAUS41 KPHI 230155
MTR12N
METAR K12N 230154Z AUTO 00000KT 13/12 A2989 RMK AO1 SLP121 T01280117





000
SAUS41 KPHI 230055
MTR12N
METAR K12N 230054Z AUTO 00000KT 13/12 A2988 RMK AO1 SLP116 T01330117





000
SAUS41 KPHI 222355
MTR12N
METAR K12N 222354Z AUTO 00000KT 16/12 A2986 RMK AO1 SLP109 T01560122
10206 20156 53010





000
SAUS41 KPHI 221855
MTR12N
METAR K12N 221854Z AUTO 04004KT 20/09 A2983 RMK AO1 SLP100 T02000094





000
SAUS41 KPHI 221755
MTR12N
METAR K12N 221754Z AUTO VRB03KT 18/09 A2984 RMK AO1 SLP102 T01830094
10189 20122 56005





000
SAUS41 KPHI 221655
MTR12N
METAR K12N 221654Z AUTO 04004KT 18/09 A2984 RMK AO1 SLP103 T01830089





000
SAUS41 KPHI 221455
MTR12N
METAR K12N 221454Z AUTO 03003KT 17/10 A2985 RMK AO1 SLP107 T01670100
58001





000
SAUS41 KPHI 221355
MTR12N
METAR K12N 221354Z AUTO 04003KT 15/10 A2986 RMK AO1 SLP110 T01500100





000
SAUS41 KPHI 221259 COR
MTR12N
METAR K12N 221254Z AUTO 00000KT 13/09 A2985 RMK AO1 SLP109 T01330094





000
SAUS41 KPHI 221257 COR
MTR12N
METAR K12N 221254Z AUTO 00000KT 13/09 A2985 RMK AO1 SLP109 T01330094





000
SAUS41 KPHI 221255
MTR12N
METAR K12N 221254Z AUTO 00000KT 13/09 A2985 RMK AO1 SLP109 T01330094





000
SAUS41 KPHI 221156
MTR12N
METAR K12N 221154Z AUTO 00000KT 12/10 A2985 RMK AO1 SLP109 70022
T01220100 10122 20100 53003





000
SAUS41 KPHI 220655
MTR12N
METAR K12N 220654Z AUTO 00000KT 11/09 A2984 RMK AO1 SLP105 T01060094





    US Dept of Commerce
    National Oceanic and Atmospheric Administration
    National Weather Service
    1325 East West Highway
    Silver Spring, MD 20910
    Page Author: NWS Internet Services Team
Disclaimer
Information Quality
Credits
Glossary
Privacy Policy
Freedom of Information Act (FOIA)
About Us
Career Opportunities